Beaver Dam, Wisconsin
Current Conditions -  °F | °C
As of 1:15 PM on Sunday 21 Dec 2014 (Local Time) from KUNU Reporting Station
Haze Haze  
Wind Chill: 24°   Ceiling: 800
Heat Index: 34°   Visibility: 5mi
Dew Point: 31°   Wind: 14mph
Humidity: 91%   Direction: 160°SSE
Pressure: 30.04"   Gusts: NA
Location:  43.46°N, 88.83°W
Report Text: KUNU 211915Z AUTO 16012KT 5SM BR OVC008 01/00 A3004 RMK AO2 T00101003
Loading
Personal Weather Stations






























Interactive Weather Map New forecast layout! Learn more

10-Day Weather Forecast

Advertisements
Track Severe Weather on mobile